Time;durP1;ratioP1;P1;durP2;ratioP2;P2;SDS_P1;SDS_P2;PMS_P1;PMS_P2;Temp;Humidity;BMP_temperature;BMP_pressure;BME280_temperature;BME280_humidity;BME280_pressure;Samples;Min_cycle;Max_cycle;Signal;HPM_P1;HPM_P2
2023/07/21 00:00:13;;;;;;;;;;;20.30;71.20;;;;;;5023430;28;20392;-81
2023/07/21 00:02:41;;;;;;;;;;;20.40;70.30;;;;;;5003599;28;19920;-80
2023/07/21 00:05:06;;;;;;;;;;;20.50;70.10;;;;;;5020283;28;20004;-81
2023/07/21 00:07:32;;;;;;;;;;;20.60;70.00;;;;;;5033444;28;19924;-80
2023/07/21 00:09:59;;;;;;;;;;;20.50;70.00;;;;;;5003861;28;19917;-80
2023/07/21 00:12:25;;;;;;;;;;;20.50;70.50;;;;;;5021578;28;19929;-82
2023/07/21 00:14:52;;;;;;;;;;;20.50;70.40;;;;;;5020481;28;20642;-82
2023/07/21 00:17:17;;;;;;;;;;;20.60;70.10;;;;;;5005488;28;19970;-80
2023/07/21 00:19:44;;;;;;;;;;;20.50;70.30;;;;;;5017708;28;20019;-81
2023/07/21 00:22:10;;;;;;;;;;;20.30;70.90;;;;;;5033969;28;19913;-81
2023/07/21 00:24:35;;;;;;;;;;;20.20;71.20;;;;;;5027010;28;19933;-82
2023/07/21 00:27:02;;;;;;;;;;;20.10;71.00;;;;;;5013722;28;20467;-81
2023/07/21 00:29:29;;;;;;;;;;;20.20;70.60;;;;;;5022023;28;19917;-81
2023/07/21 00:31:55;;;;;;;;;;;20.20;69.10;;;;;;5003551;28;19929;-81
2023/07/21 00:34:24;;;;;;;;;;;20.20;69.20;;;;;;5021827;28;19925;-81
2023/07/21 00:36:50;;;;;;;;;;;20.10;69.20;;;;;;5021873;28;19917;-81
2023/07/21 00:39:16;;;;;;;;;;;20.20;68.30;;;;;;5025343;28;20436;-80
2023/07/21 00:41:41;;;;;;;;;;;20.00;67.90;;;;;;5026069;28;19924;-81
2023/07/21 00:44:09;;;;;;;;;;;20.10;68.00;;;;;;5024346;28;19917;-80
2023/07/21 00:46:35;;;;;;;;;;;20.20;67.70;;;;;;5022567;28;19921;-80
2023/07/21 00:49:01;;;;;;;;;;;20.10;68.00;;;;;;5023420;28;19952;-81
2023/07/21 00:51:27;;;;;;;;;;;20.00;68.00;;;;;;5004536;28;20438;-81
2023/07/21 00:53:54;;;;;;;;;;;20.00;67.70;;;;;;5024637;28;19921;-80
2023/07/21 00:56:19;;;;;;;;;;;20.00;67.70;;;;;;5032282;28;19913;-81
2023/07/21 00:58:45;;;;;;;;;;;20.00;67.50;;;;;;5008451;28;20560;-81
2023/07/21 01:01:10;;;;;;;;;;;20.10;67.90;;;;;;5003797;28;19917;-81
2023/07/21 01:03:39;;;;;;;;;;;20.00;67.40;;;;;;5021450;28;20340;-81
2023/07/21 01:06:06;;;;;;;;;;;19.90;67.80;;;;;;5023602;28;20486;-80
2023/07/21 01:08:31;;;;;;;;;;;20.00;67.90;;;;;;5024277;28;19917;-80
2023/07/21 01:10:57;;;;;;;;;;;19.80;69.00;;;;;;5024675;28;19917;-81
2023/07/21 01:13:23;;;;;;;;;;;19.90;68.90;;;;;;5025582;28;19932;-82
2023/07/21 01:15:50;;;;;;;;;;;19.80;69.30;;;;;;5025226;28;19946;-80
2023/07/21 01:18:17;;;;;;;;;;;19.70;69.90;;;;;;5022609;28;19982;-81
2023/07/21 01:20:43;;;;;;;;;;;19.70;70.10;;;;;;5024237;28;20012;-80
2023/07/21 01:23:10;;;;;;;;;;;19.60;70.30;;;;;;5031963;28;19917;-81
2023/07/21 01:25:39;;;;;;;;;;;19.60;69.80;;;;;;5029714;28;19912;-81
2023/07/21 01:28:06;;;;;;;;;;;19.80;69.70;;;;;;5029335;28;19960;-80
2023/07/21 01:30:32;;;;;;;;;;;19.70;69.80;;;;;;5026941;28;19924;-81
2023/07/21 01:32:59;;;;;;;;;;;19.70;69.80;;;;;;5029018;28;20281;-81
2023/07/21 01:35:28;;;;;;;;;;;19.70;69.90;;;;;;5029261;28;19921;-81
2023/07/21 01:37:55;;;;;;;;;;;19.60;70.10;;;;;;5027938;28;19925;-80
2023/07/21 01:40:21;;;;;;;;;;;19.60;69.90;;;;;;5007232;28;20873;-80
2023/07/21 01:42:46;;;;;;;;;;;19.50;70.80;;;;;;5026851;28;19917;-79
2023/07/21 01:45:12;;;;;;;;;;;19.50;70.60;;;;;;5025098;28;20047;-80
2023/07/21 01:47:38;;;;;;;;;;;19.40;71.00;;;;;;5006754;28;19921;-79
2023/07/21 01:50:06;;;;;;;;;;;19.40;70.90;;;;;;5024420;28;19975;-79
2023/07/21 01:52:34;;;;;;;;;;;19.40;71.00;;;;;;5011712;28;19967;-80
2023/07/21 01:55:07;;;;;;;;;;;19.40;71.20;;;;;;5012744;28;20379;-79
2023/07/21 01:57:35;;;;;;;;;;;19.30;71.70;;;;;;5012579;28;19924;-79
2023/07/21 02:00:02;;;;;;;;;;;19.30;72.00;;;;;;5028793;28;19917;-79
2023/07/21 02:02:28;;;;;;;;;;;19.20;72.40;;;;;;5028144;28;20346;-80
2023/07/21 02:04:54;;;;;;;;;;;19.30;72.30;;;;;;5024516;28;19917;-79
2023/07/21 02:07:20;;;;;;;;;;;19.20;72.80;;;;;;5024326;28;19994;-80
2023/07/21 02:09:50;;;;;;;;;;;19.10;72.40;;;;;;5024636;28;19917;-81
2023/07/21 02:12:15;;;;;;;;;;;19.20;73.20;;;;;;5023959;28;20016;-80
2023/07/21 02:14:41;;;;;;;;;;;19.10;73.10;;;;;;5024266;28;19962;-80
2023/07/21 02:17:06;;;;;;;;;;;19.00;74.50;;;;;;5018163;28;20007;-80
2023/07/21 02:19:32;;;;;;;;;;;19.10;74.70;;;;;;5022058;28;19917;-80
2023/07/21 02:21:58;;;;;;;;;;;18.90;75.90;;;;;;5023559;28;19913;-79
2023/07/21 02:24:24;;;;;;;;;;;18.80;76.70;;;;;;5031330;28;19924;-79
2023/07/21 02:26:50;;;;;;;;;;;18.80;77.30;;;;;;5026111;28;19921;-80
2023/07/21 02:29:16;;;;;;;;;;;18.70;78.00;;;;;;5024520;28;20514;-82
2023/07/21 02:31:42;;;;;;;;;;;18.80;77.80;;;;;;5027251;28;20000;-81
2023/07/21 02:34:08;;;;;;;;;;;18.80;78.50;;;;;;5009525;28;19931;-81
2023/07/21 02:36:33;;;;;;;;;;;18.70;79.30;;;;;;5023671;28;20403;-81
2023/07/21 02:38:59;;;;;;;;;;;18.80;78.80;;;;;;5023883;28;19913;-81
2023/07/21 02:41:24;;;;;;;;;;;18.70;79.10;;;;;;5026225;28;19928;-81
2023/07/21 02:43:50;;;;;;;;;;;18.50;80.40;;;;;;5023800;28;19917;-81
2023/07/21 02:46:15;;;;;;;;;;;18.60;80.50;;;;;;5023639;28;20315;-81
2023/07/21 02:48:41;;;;;;;;;;;18.50;81.50;;;;;;5023309;28;20330;-81
2023/07/21 02:51:06;;;;;;;;;;;18.60;81.10;;;;;;5007893;28;20745;-80
2023/07/21 02:53:32;;;;;;;;;;;18.70;81.30;;;;;;5029659;28;19931;-81
2023/07/21 02:56:00;;;;;;;;;;;18.70;81.20;;;;;;5028812;28;20090;-81
2023/07/21 02:58:26;;;;;;;;;;;18.60;81.90;;;;;;5017425;28;19913;-81
2023/07/21 03:00:55;;;;;;;;;;;18.40;82.20;;;;;;5021814;28;19920;-81
2023/07/21 03:03:23;;;;;;;;;;;18.40;82.50;;;;;;5022839;28;19932;-81
2023/07/21 03:05:48;;;;;;;;;;;18.50;82.80;;;;;;5026878;28;19938;-81
2023/07/21 03:08:14;;;;;;;;;;;18.30;83.80;;;;;;5023995;28;19924;-81
2023/07/21 03:10:40;;;;;;;;;;;18.60;82.80;;;;;;5026102;28;19909;-80
2023/07/21 03:13:05;;;;;;;;;;;18.40;83.00;;;;;;5030464;28;19921;-80
2023/07/21 03:15:31;;;;;;;;;;;18.40;83.50;;;;;;5024326;28;20492;-82
2023/07/21 03:17:57;;;;;;;;;;;18.60;83.20;;;;;;5027795;28;19992;-81
2023/07/21 03:20:22;;;;;;;;;;;18.40;83.60;;;;;;5029376;28;19964;-80
2023/07/21 03:22:48;;;;;;;;;;;18.20;84.30;;;;;;5011214;28;19948;-80
2023/07/21 03:25:13;;;;;;;;;;;18.20;84.60;;;;;;5022514;28;20488;-80
2023/07/21 03:27:39;;;;;;;;;;;18.20;84.70;;;;;;5029446;28;19917;-81
2023/07/21 03:30:13;;;;;;;;;;;18.20;85.10;;;;;;5026954;28;19917;-81
2023/07/21 03:32:39;;;;;;;;;;;18.20;84.90;;;;;;5011698;28;19924;-80
2023/07/21 03:35:05;;;;;;;;;;;18.20;85.30;;;;;;5014271;28;19940;-83
2023/07/21 03:37:34;;;;;;;;;;;18.20;85.50;;;;;;5021075;28;19921;-82
2023/07/21 03:40:00;;;;;;;;;;;18.00;86.20;;;;;;5022921;28;19920;-81
2023/07/21 03:42:26;;;;;;;;;;;18.00;86.80;;;;;;5004493;28;20388;-82
2023/07/21 03:44:52;;;;;;;;;;;17.90;87.10;;;;;;5022431;28;19917;-80
2023/07/21 03:47:19;;;;;;;;;;;17.80;88.00;;;;;;5003680;28;19921;-80
2023/07/21 03:49:45;;;;;;;;;;;17.70;88.40;;;;;;5006959;28;19962;-80
2023/07/21 03:52:11;;;;;;;;;;;17.70;88.30;;;;;;5033976;28;19947;-80
2023/07/21 03:54:36;;;;;;;;;;;17.80;87.70;;;;;;5031082;28;19916;-80
2023/07/21 03:57:02;;;;;;;;;;;17.70;87.40;;;;;;5024226;28;20473;-81
2023/07/21 03:59:29;;;;;;;;;;;17.70;87.50;;;;;;5022410;28;19917;-80
2023/07/21 04:01:55;;;;;;;;;;;17.70;87.50;;;;;;5021948;28;19916;-80
2023/07/21 04:04:20;;;;;;;;;;;17.90;86.60;;;;;;5030611;28;20727;-80
2023/07/21 04:06:46;;;;;;;;;;;17.80;86.20;;;;;;5033652;28;19917;-83
2023/07/21 04:09:14;;;;;;;;;;;17.70;86.30;;;;;;5037886;28;19913;-80
2023/07/21 04:11:40;;;;;;;;;;;17.60;86.30;;;;;;5025995;28;19916;-82
2023/07/21 04:14:06;;;;;;;;;;;17.60;86.60;;;;;;5025614;28;19927;-82
2023/07/21 04:16:32;;;;;;;;;;;17.50;86.20;;;;;;5025567;28;19917;-82
2023/07/21 04:18:58;;;;;;;;;;;17.50;86.40;;;;;;5021994;28;19925;-81
2023/07/21 04:21:23;;;;;;;;;;;17.60;85.30;;;;;;5022046;28;19913;-80
2023/07/21 04:23:49;;;;;;;;;;;17.60;85.30;;;;;;5022148;28;19921;-81
2023/07/21 04:26:15;;;;;;;;;;;17.50;85.60;;;;;;5009586;28;19917;-81
2023/07/21 04:28:44;;;;;;;;;;;17.40;86.10;;;;;;5023490;28;19913;-82
2023/07/21 04:31:10;;;;;;;;;;;17.50;85.20;;;;;;5032216;28;19916;-81
2023/07/21 04:33:36;;;;;;;;;;;17.50;84.90;;;;;;5022276;28;19921;-81
2023/07/21 04:36:04;;;;;;;;;;;17.40;85.20;;;;;;5021972;28;19913;-80
2023/07/21 04:38:30;;;;;;;;;;;17.40;85.60;;;;;;5021295;28;19929;-80
2023/07/21 04:40:56;;;;;;;;;;;17.30;85.40;;;;;;5035669;28;19916;-84
2023/07/21 04:43:22;;;;;;;;;;;17.60;85.50;;;;;;5026060;28;19921;-87
2023/07/21 04:45:47;;;;;;;;;;;17.70;83.60;;;;;;5033989;28;20019;-88
2023/07/21 04:48:13;;;;;;;;;;;17.50;84.50;;;;;;5038879;28;19998;-81
2023/07/21 04:50:42;;;;;;;;;;;17.60;83.70;;;;;;5035214;28;19925;-81
2023/07/21 04:53:08;;;;;;;;;;;17.50;82.50;;;;;;5040789;28;20383;-81
2023/07/21 04:55:36;;;;;;;;;;;17.50;81.90;;;;;;5006728;28;20424;-81
2023/07/21 04:58:02;;;;;;;;;;;17.60;82.10;;;;;;5027069;28;20287;-79
2023/07/21 05:00:28;;;;;;;;;;;17.50;82.40;;;;;;5025059;28;19966;-79
2023/07/21 05:02:53;;;;;;;;;;;17.40;81.80;;;;;;5018834;28;19912;-79
2023/07/21 05:05:19;;;;;;;;;;;17.40;82.10;;;;;;5030227;28;19924;-79
2023/07/21 05:07:44;;;;;;;;;;;17.40;82.60;;;;;;5025622;28;20521;-81
2023/07/21 05:10:10;;;;;;;;;;;17.20;82.80;;;;;;5024818;28;20645;-80
2023/07/21 05:12:35;;;;;;;;;;;17.10;83.20;;;;;;5037627;28;20019;-83
2023/07/21 05:15:01;;;;;;;;;;;17.20;83.20;;;;;;5030827;28;20379;-82
2023/07/21 05:17:27;;;;;;;;;;;17.00;83.70;;;;;;5036919;28;19923;-83
2023/07/21 05:19:53;;;;;;;;;;;17.10;83.80;;;;;;5039800;28;19920;-78
2023/07/21 05:22:19;;;;;;;;;;;17.10;83.90;;;;;;5040149;28;19952;-79
2023/07/21 05:24:44;;;;;;;;;;;17.20;83.80;;;;;;5028640;28;19956;-78
2023/07/21 05:27:10;;;;;;;;;;;17.30;84.00;;;;;;5025557;28;20344;-78
2023/07/21 05:29:36;;;;;;;;;;;17.30;83.70;;;;;;5024696;28;19923;-80
2023/07/21 05:32:03;;;;;;;;;;;17.40;83.30;;;;;;5031107;28;20007;-80
2023/07/21 05:34:29;;;;;;;;;;;17.30;83.80;;;;;;5032335;28;19987;-79
2023/07/21 05:36:55;;;;;;;;;;;17.50;83.30;;;;;;5029287;28;20339;-82
2023/07/21 05:39:20;;;;;;;;;;;17.30;83.50;;;;;;5013059;28;19913;-81
2023/07/21 05:41:46;;;;;;;;;;;17.40;83.30;;;;;;5034141;28;19917;-80
2023/07/21 05:44:12;;;;;;;;;;;17.40;83.40;;;;;;5028010;28;20016;-81
2023/07/21 05:46:39;;;;;;;;;;;17.50;83.30;;;;;;5029782;28;20659;-79
2023/07/21 05:49:05;;;;;;;;;;;17.30;84.20;;;;;;5005973;28;19916;-79
2023/07/21 05:51:31;;;;;;;;;;;17.30;84.10;;;;;;5022872;28;20459;-85
2023/07/21 05:53:57;;;;;;;;;;;17.60;83.70;;;;;;5024073;28;19925;-82
2023/07/21 05:56:22;;;;;;;;;;;17.60;83.60;;;;;;5008307;28;19917;-81
2023/07/21 05:58:48;;;;;;;;;;;17.50;83.40;;;;;;5011998;28;19913;-80
2023/07/21 06:01:13;;;;;;;;;;;17.40;84.30;;;;;;5023358;28;19923;-82
2023/07/21 06:03:39;;;;;;;;;;;17.70;84.30;;;;;;5023926;28;19924;-81
2023/07/21 06:06:05;;;;;;;;;;;17.80;83.20;;;;;;4999719;28;19955;-79
2023/07/21 06:08:30;;;;;;;;;;;17.90;83.10;;;;;;5010060;28;20455;-80
2023/07/21 06:11:00;;;;;;;;;;;17.70;83.40;;;;;;5004963;28;19913;-80
2023/07/21 06:13:28;;;;;;;;;;;17.80;83.00;;;;;;5023200;28;19979;-80
2023/07/21 06:15:53;;;;;;;;;;;17.70;82.60;;;;;;5004822;28;19913;-80
2023/07/21 06:18:19;;;;;;;;;;;18.00;82.50;;;;;;5019212;28;19998;-80
2023/07/21 06:20:45;;;;;;;;;;;17.90;82.70;;;;;;5022878;28;20054;-79
2023/07/21 06:23:10;;;;;;;;;;;18.30;81.00;;;;;;5022993;28;20410;-80
2023/07/21 06:25:36;;;;;;;;;;;18.40;81.10;;;;;;5022642;28;19913;-81
2023/07/21 06:28:01;;;;;;;;;;;18.30;79.30;;;;;;5023771;28;19913;-80
2023/07/21 06:30:27;;;;;;;;;;;19.00;79.20;;;;;;5022826;28;19913;-80
2023/07/21 06:32:53;;;;;;;;;;;19.60;77.30;;;;;;5023233;28;19992;-80
2023/07/21 06:35:18;;;;;;;;;;;19.30;76.90;;;;;;5023117;28;20067;-79
2023/07/21 06:37:44;;;;;;;;;;;19.60;77.00;;;;;;5023405;28;19995;-79
2023/07/21 06:40:10;;;;;;;;;;;19.30;76.50;;;;;;5023358;28;20744;-80
2023/07/21 06:42:36;;;;;;;;;;;19.10;77.50;;;;;;5022542;28;20251;-81
2023/07/21 06:45:02;;;;;;;;;;;19.20;77.10;;;;;;5022116;28;20394;-80
2023/07/21 06:47:28;;;;;;;;;;;19.00;77.60;;;;;;5022520;28;19964;-79
2023/07/21 06:49:54;;;;;;;;;;;18.60;77.80;;;;;;5005276;28;20004;-80
2023/07/21 06:52:19;;;;;;;;;;;18.60;79.10;;;;;;5020777;28;19925;-80
2023/07/21 06:54:45;;;;;;;;;;;18.40;80.40;;;;;;5016239;28;20000;-79
2023/07/21 06:57:10;;;;;;;;;;;18.20;80.80;;;;;;5018410;28;19929;-80
2023/07/21 06:59:36;;;;;;;;;;;18.70;79.40;;;;;;5015728;28;19913;-81
2023/07/21 07:02:02;;;;;;;;;;;19.00;79.30;;;;;;5021477;28;19951;-80
2023/07/21 07:04:27;;;;;;;;;;;19.10;78.30;;;;;;5022944;28;19914;-80
2023/07/21 07:06:55;;;;;;;;;;;19.20;78.50;;;;;;5022664;28;19910;-80
2023/07/21 07:09:23;;;;;;;;;;;19.10;77.80;;;;;;5023151;28;19913;-80
2023/07/21 07:11:49;;;;;;;;;;;19.00;78.20;;;;;;5021607;28;20384;-80
2023/07/21 07:14:15;;;;;;;;;;;19.10;77.90;;;;;;5001677;28;19921;-81
2023/07/21 07:16:41;;;;;;;;;;;19.50;77.50;;;;;;5021992;28;19924;-81
2023/07/21 07:19:06;;;;;;;;;;;19.10;78.20;;;;;;5022349;28;19913;-80
2023/07/21 07:21:32;;;;;;;;;;;18.90;78.60;;;;;;5021487;28;19913;-80
2023/07/21 07:23:58;;;;;;;;;;;18.60;78.40;;;;;;5022330;28;20356;-80
2023/07/21 07:26:23;;;;;;;;;;;18.40;78.90;;;;;;5022404;28;19917;-80
2023/07/21 07:28:51;;;;;;;;;;;18.60;80.10;;;;;;5027432;28;20297;-80
2023/07/21 07:31:17;;;;;;;;;;;18.90;78.90;;;;;;5021596;28;20757;-80
2023/07/21 07:33:44;;;;;;;;;;;18.70;79.30;;;;;;5021848;28;19921;-80
2023/07/21 07:36:11;;;;;;;;;;;19.00;78.70;;;;;;5026577;28;19967;-81
2023/07/21 07:38:38;;;;;;;;;;;19.20;78.40;;;;;;5025905;28;19913;-80
2023/07/21 07:41:05;;;;;;;;;;;19.20;77.40;;;;;;5027862;28;19944;-80
2023/07/21 07:43:32;;;;;;;;;;;19.40;76.60;;;;;;5011727;28;19913;-81
2023/07/21 07:45:58;;;;;;;;;;;19.40;76.90;;;;;;5015921;28;19917;-80
2023/07/21 07:48:24;;;;;;;;;;;19.40;76.70;;;;;;4990262;28;19925;-80
2023/07/21 07:50:53;;;;;;;;;;;19.30;76.90;;;;;;5013972;28;19940;-80
2023/07/21 07:53:19;;;;;;;;;;;19.10;76.80;;;;;;5007813;28;20392;-81
2023/07/21 07:55:45;;;;;;;;;;;19.00;77.10;;;;;;5025954;28;19913;-80
2023/07/21 07:58:11;;;;;;;;;;;18.90;76.90;;;;;;5009552;28;19924;-80
2023/07/21 08:00:38;;;;;;;;;;;18.90;77.60;;;;;;5022132;28;20376;-80
2023/07/21 08:03:07;;;;;;;;;;;19.10;76.50;;;;;;5021348;28;19956;-78
2023/07/21 08:05:36;;;;;;;;;;;19.00;76.00;;;;;;5022182;28;20668;-79
2023/07/21 08:08:02;;;;;;;;;;;19.00;76.90;;;;;;5021023;28;20300;-79
2023/07/21 08:10:28;;;;;;;;;;;19.10;76.00;;;;;;4995536;28;19922;-79
2023/07/21 08:12:55;;;;;;;;;;;18.90;77.90;;;;;;5013274;28;19921;-80
2023/07/21 08:15:21;;;;;;;;;;;18.80;77.50;;;;;;5022969;28;19917;-80
2023/07/21 08:17:46;;;;;;;;;;;19.10;78.00;;;;;;5023020;28;19913;-81
2023/07/21 08:20:12;;;;;;;;;;;19.30;76.60;;;;;;5021180;28;20446;-79
2023/07/21 08:22:37;;;;;;;;;;;19.30;76.70;;;;;;5019817;28;19917;-79
2023/07/21 08:25:05;;;;;;;;;;;19.60;76.10;;;;;;5020702;28;20339;-79
2023/07/21 08:27:33;;;;;;;;;;;19.50;76.60;;;;;;5008665;28;20904;-80
2023/07/21 08:29:59;;;;;;;;;;;19.60;75.30;;;;;;5024067;28;20600;-80
2023/07/21 08:32:25;;;;;;;;;;;19.30;75.60;;;;;;5008245;28;19921;-80
2023/07/21 08:34:51;;;;;;;;;;;19.40;75.70;;;;;;5007119;28;19920;-80
2023/07/21 08:37:16;;;;;;;;;;;19.40;76.40;;;;;;5007215;28;19920;-81
2023/07/21 08:39:42;;;;;;;;;;;19.30;74.90;;;;;;5020998;28;19920;-80
2023/07/21 08:42:10;;;;;;;;;;;19.30;75.70;;;;;;5020491;28;19913;-80
2023/07/21 08:44:37;;;;;;;;;;;19.20;76.50;;;;;;5006866;28;20463;-80
2023/07/21 08:47:03;;;;;;;;;;;19.40;77.00;;;;;;5024479;28;19957;-80
2023/07/21 08:49:28;;;;;;;;;;;19.40;76.60;;;;;;5008627;28;19987;-80
2023/07/21 08:51:54;;;;;;;;;;;19.70;76.20;;;;;;5023246;28;20016;-80
2023/07/21 08:54:19;;;;;;;;;;;19.40;75.60;;;;;;5023835;28;19917;-80
2023/07/21 08:56:45;;;;;;;;;;;19.50;76.20;;;;;;5021845;28;19913;-80
2023/07/21 08:59:10;;;;;;;;;;;19.40;75.10;;;;;;5000284;28;19921;-81
2023/07/21 09:01:36;;;;;;;;;;;19.60;75.30;;;;;;5030332;28;20422;-80
2023/07/21 09:04:15;;;;;;;;;;;19.60;74.90;;;;;;5031906;28;20413;-80
2023/07/21 09:06:43;;;;;;;;;;;19.60;74.70;;;;;;5035402;28;19947;-80
2023/07/21 09:09:16;;;;;;;;;;;19.70;76.60;;;;;;5021008;28;19916;-81
2023/07/21 09:11:44;;;;;;;;;;;19.70;74.80;;;;;;5005433;28;19921;-80
2023/07/21 09:14:10;;;;;;;;;;;20.50;74.40;;;;;;5024502;28;19995;-83
2023/07/21 09:16:37;;;;;;;;;;;20.90;72.80;;;;;;5023323;28;19917;-82
2023/07/21 09:19:05;;;;;;;;;;;21.20;70.80;;;;;;5015398;28;19923;-81
2023/07/21 09:21:31;;;;;;;;;;;21.30;71.30;;;;;;5009041;28;19913;-81
2023/07/21 09:24:00;;;;;;;;;;;21.40;69.80;;;;;;5023398;28;19935;-81
2023/07/21 09:26:26;;;;;;;;;;;21.20;70.20;;;;;;5021823;28;20036;-81
2023/07/21 09:28:51;;;;;;;;;;;21.20;70.40;;;;;;5030291;28;20003;-81
2023/07/21 09:31:17;;;;;;;;;;;21.50;68.80;;;;;;5023895;28;20779;-81
2023/07/21 09:33:45;;;;;;;;;;;21.40;69.70;;;;;;5023758;28;20719;-81
2023/07/21 09:36:12;;;;;;;;;;;21.40;69.40;;;;;;5023929;28;19921;-80
2023/07/21 09:38:38;;;;;;;;;;;21.50;69.10;;;;;;5024145;28;19917;-82
2023/07/21 09:41:05;;;;;;;;;;;21.40;68.90;;;;;;5017364;28;19913;-78
2023/07/21 09:43:31;;;;;;;;;;;21.20;69.80;;;;;;5018151;28;20470;-77
2023/07/21 09:46:01;;;;;;;;;;;21.50;69.00;;;;;;5022032;28;20007;-78
2023/07/21 09:48:28;;;;;;;;;;;21.80;67.70;;;;;;5028934;28;19917;-78
2023/07/21 09:50:56;;;;;;;;;;;21.90;67.50;;;;;;5027903;28;19932;-78
2023/07/21 09:53:25;;;;;;;;;;;21.90;66.50;;;;;;5026032;28;19925;-79
2023/07/21 09:55:51;;;;;;;;;;;22.00;68.60;;;;;;5004862;28;20360;-79
2023/07/21 09:58:18;;;;;;;;;;;22.10;65.30;;;;;;5024714;28;20579;-77
2023/07/21 10:00:44;;;;;;;;;;;22.50;66.10;;;;;;5025191;28;21101;-78
2023/07/21 10:03:11;;;;;;;;;;;22.90;64.70;;;;;;5023404;28;19983;-78
2023/07/21 10:05:38;;;;;;;;;;;23.40;64.60;;;;;;5025866;28;19950;-80
2023/07/21 10:08:04;;;;;;;;;;;23.50;63.30;;;;;;5023962;28;20474;-78
2023/07/21 10:10:30;;;;;;;;;;;23.60;62.50;;;;;;5028206;28;19913;-79
2023/07/21 10:13:03;;;;;;;;;;;23.40;63.20;;;;;;5023286;28;19986;-80
2023/07/21 10:15:29;;;;;;;;;;;23.60;63.70;;;;;;5025631;28;19963;-78
2023/07/21 10:17:58;;;;;;;;;;;23.50;63.80;;;;;;5009108;28;19960;-79
2023/07/21 10:20:40;;;;;;;;;;;23.60;64.40;;;;;;5020557;28;19917;-78
2023/07/21 10:23:08;;;;;;;;;;;23.70;62.80;;;;;;5022262;28;19917;-81
2023/07/21 10:25:56;;;;;;;;;;;24.00;62.40;;;;;;5021293;28;19913;-78
2023/07/21 10:28:32;;;;;;;;;;;24.40;61.60;;;;;;5015431;28;19921;-80
2023/07/21 10:33:28;;;;;;;;;;;24.10;58.00;;;;;;4987229;28;19929;-78
2023/07/21 10:36:11;;;;;;;;;;;24.50;59.40;;;;;;5021242;28;19913;-78
2023/07/21 10:38:40;;;;;;;;;;;24.20;57.60;;;;;;5016330;28;19917;-78
2023/07/21 10:41:05;;;;;;;;;;;24.80;56.70;;;;;;5017468;28;19957;-78
2023/07/21 10:43:32;;;;;;;;;;;25.90;54.60;;;;;;5022831;28;19996;-78
2023/07/21 10:45:57;;;;;;;;;;;26.30;53.40;;;;;;5018833;28;19932;-78
2023/07/21 10:48:25;;;;;;;;;;;25.90;53.80;;;;;;5022603;28;20953;-78
2023/07/21 10:50:54;;;;;;;;;;;25.90;55.70;;;;;;5021247;28;20050;-81
2023/07/21 10:53:23;;;;;;;;;;;25.70;55.80;;;;;;5002428;28;19983;-81
2023/07/21 10:55:52;;;;;;;;;;;25.30;55.90;;;;;;5018518;28;19917;-83
2023/07/21 10:58:18;;;;;;;;;;;25.30;55.70;;;;;;5018754;28;19983;-82
2023/07/21 11:00:51;;;;;;;;;;;25.50;56.20;;;;;;5001853;28;19925;-81
2023/07/21 11:03:17;;;;;;;;;;;25.10;56.40;;;;;;5019890;28;19970;-83
2023/07/21 11:05:43;;;;;;;;;;;24.20;57.10;;;;;;5020814;28;20637;-82
2023/07/21 11:08:27;;;;;;;;;;;24.40;58.70;;;;;;5023270;28;19960;-82
2023/07/21 11:10:54;;;;;;;;;;;25.10;57.90;;;;;;5005733;28;19913;-82
2023/07/21 11:13:20;;;;;;;;;;;25.30;57.10;;;;;;5024394;28;20319;-82
2023/07/21 11:16:04;;;;;;;;;;;24.90;56.50;;;;;;5006877;28;19917;-84
2023/07/21 11:18:30;;;;;;;;;;;25.40;57.80;;;;;;5019634;28;20455;-84
2023/07/21 11:20:55;;;;;;;;;;;25.90;57.60;;;;;;5025669;28;20012;-84
2023/07/21 11:23:24;;;;;;;;;;;25.70;54.00;;;;;;5026259;28;19962;-83
2023/07/21 11:26:10;;;;;;;;;;;24.40;54.80;;;;;;5026521;28;19921;-83
2023/07/21 11:28:39;;;;;;;;;;;25.10;56.50;;;;;;5003235;28;19924;-85
2023/07/21 11:31:12;;;;;;;;;;;25.10;57.70;;;;;;5016545;28;19917;-82
2023/07/21 11:33:58;;;;;;;;;;;25.30;60.40;;;;;;5022623;28;20597;-83
2023/07/21 11:36:24;;;;;;;;;;;25.40;60.40;;;;;;5019463;28;19913;-83
2023/07/21 11:38:57;;;;;;;;;;;25.30;57.80;;;;;;5018609;28;19923;-82
2023/07/21 11:41:39;;;;;;;;;;;25.10;54.90;;;;;;4999500;28;19925;-83
2023/07/21 11:44:09;;;;;;;;;;;24.30;56.30;;;;;;5021279;28;19920;-82
2023/07/21 11:46:38;;;;;;;;;;;23.30;58.50;;;;;;5002417;28;19925;-84
2023/07/21 11:49:10;;;;;;;;;;;23.30;60.40;;;;;;5020239;28;19917;-83
2023/07/21 11:51:46;;;;;;;;;;;23.40;61.30;;;;;;5029076;28;20032;-83
2023/07/21 11:54:37;;;;;;;;;;;23.30;60.60;;;;;;5023467;28;19979;-84
2023/07/21 11:57:03;;;;;;;;;;;23.40;59.80;;;;;;5010277;28;21152;-83
2023/07/21 11:59:29;;;;;;;;;;;23.70;59.90;;;;;;5016770;28;19917;-82
2023/07/21 12:01:55;;;;;;;;;;;24.10;60.90;;;;;;5015764;28;20222;-83
2023/07/21 12:04:22;;;;;;;;;;;24.40;59.90;;;;;;5020022;28;19917;-82
2023/07/21 12:06:48;;;;;;;;;;;24.10;58.80;;;;;;5021043;28;19920;-81
2023/07/21 12:09:13;;;;;;;;;;;24.20;58.60;;;;;;5027029;28;19913;-82
2023/07/21 12:11:39;;;;;;;;;;;24.70;56.40;;;;;;5018320;28;20434;-85
2023/07/21 12:14:05;;;;;;;;;;;25.10;56.50;;;;;;5011935;28;19921;-84
2023/07/21 12:16:31;;;;;;;;;;;25.20;57.00;;;;;;5018909;28;19917;-76
2023/07/21 12:18:57;;;;;;;;;;;25.50;57.80;;;;;;5022289;28;19955;-78
2023/07/21 12:21:25;;;;;;;;;;;25.40;56.60;;;;;;5021867;28;19917;-78
2023/07/21 12:23:51;;;;;;;;;;;25.60;56.50;;;;;;5005258;28;19987;-79
2023/07/21 12:26:18;;;;;;;;;;;25.70;60.10;;;;;;5015680;28;19917;-78
2023/07/21 12:28:44;;;;;;;;;;;25.30;57.10;;;;;;5027263;28;19913;-78
2023/07/21 12:31:11;;;;;;;;;;;25.50;56.70;;;;;;5021784;28;19913;-79
2023/07/21 12:33:37;;;;;;;;;;;25.50;55.70;;;;;;5028964;28;20558;-78
2023/07/21 12:36:03;;;;;;;;;;;25.70;55.40;;;;;;5020456;28;19923;-79
2023/07/21 12:38:28;;;;;;;;;;;26.30;54.60;;;;;;5020842;28;19913;-79
2023/07/21 12:40:54;;;;;;;;;;;26.60;55.30;;;;;;5022375;28;20012;-78
2023/07/21 12:43:19;;;;;;;;;;;26.50;53.70;;;;;;5004069;28;20000;-79
2023/07/21 12:45:45;;;;;;;;;;;26.50;54.90;;;;;;5022102;28;20357;-78
2023/07/21 12:48:10;;;;;;;;;;;26.90;53.00;;;;;;5016153;28;21049;-78
2023/07/21 12:50:36;;;;;;;;;;;26.30;51.50;;;;;;5001094;28;19956;-78
2023/07/21 12:53:02;;;;;;;;;;;26.20;51.30;;;;;;5026393;28;19932;-78
2023/07/21 12:55:27;;;;;;;;;;;25.90;52.40;;;;;;5014959;28;20044;-79
2023/07/21 12:57:53;;;;;;;;;;;26.20;56.20;;;;;;5019598;28;20788;-78
2023/07/21 13:00:18;;;;;;;;;;;26.40;56.70;;;;;;5023682;28;19921;-78
2023/07/21 13:02:44;;;;;;;;;;;26.50;56.80;;;;;;5032972;28;20739;-79
2023/07/21 13:05:11;;;;;;;;;;;26.80;56.00;;;;;;5024503;28;19968;-79
2023/07/21 13:07:39;;;;;;;;;;;26.30;55.70;;;;;;5021446;28;19920;-79
2023/07/21 13:10:05;;;;;;;;;;;26.20;56.10;;;;;;5003570;28;20714;-79
2023/07/21 13:12:31;;;;;;;;;;;25.30;57.20;;;;;;5020205;28;19923;-78
2023/07/21 13:14:56;;;;;;;;;;;25.30;57.70;;;;;;5021122;28;19921;-79
2023/07/21 13:17:22;;;;;;;;;;;25.20;56.70;;;;;;5022926;28;19917;-77
2023/07/21 13:19:48;;;;;;;;;;;25.40;56.70;;;;;;5013774;28;19922;-77
2023/07/21 13:22:14;;;;;;;;;;;25.40;55.30;;;;;;5015659;28;19921;-78
2023/07/21 13:24:40;;;;;;;;;;;25.40;55.90;;;;;;5026470;28;19952;-77
2023/07/21 13:27:06;;;;;;;;;;;25.70;55.70;;;;;;5025577;28;19917;-77
2023/07/21 13:29:31;;;;;;;;;;;25.90;55.50;;;;;;5021695;28;20316;-79
2023/07/21 13:31:57;;;;;;;;;;;25.90;54.70;;;;;;5005766;28;19909;-77
2023/07/21 13:34:22;;;;;;;;;;;26.00;54.60;;;;;;5002493;28;19921;-78
2023/07/21 13:36:48;;;;;;;;;;;25.90;55.50;;;;;;5012583;28;19913;-76
2023/07/21 13:39:14;;;;;;;;;;;25.50;54.80;;;;;;5012045;28;19912;-76
2023/07/21 13:41:40;;;;;;;;;;;25.40;56.60;;;;;;5029771;28;20000;-79
2023/07/21 13:44:07;;;;;;;;;;;25.40;58.00;;;;;;5018051;28;20695;-76
2023/07/21 13:46:32;;;;;;;;;;;24.90;57.00;;;;;;5022960;28;19921;-78
2023/07/21 13:48:58;;;;;;;;;;;25.10;58.80;;;;;;5024173;28;19920;-77
2023/07/21 13:51:24;;;;;;;;;;;25.10;58.90;;;;;;5027317;28;20328;-77
2023/07/21 13:53:49;;;;;;;;;;;24.80;59.90;;;;;;5006682;28;20019;-77
2023/07/21 13:56:15;;;;;;;;;;;24.70;57.60;;;;;;5026090;28;19913;-77
2023/07/21 13:58:41;;;;;;;;;;;24.50;58.20;;;;;;5023301;28;19916;-77
2023/07/21 14:01:08;;;;;;;;;;;24.50;57.60;;;;;;5023997;28;19914;-77
2023/07/21 14:03:33;;;;;;;;;;;23.80;59.30;;;;;;5016670;28;20008;-77
2023/07/21 14:05:59;;;;;;;;;;;23.70;59.90;;;;;;5021848;28;20015;-77
2023/07/21 14:08:24;;;;;;;;;;;24.30;59.70;;;;;;5001636;28;20319;-76
2023/07/21 14:10:50;;;;;;;;;;;24.70;58.90;;;;;;5023430;28;19913;-78
2023/07/21 14:13:17;;;;;;;;;;;24.80;58.10;;;;;;5005140;28;19960;-77
2023/07/21 14:15:43;;;;;;;;;;;24.30;56.30;;;;;;5019326;28;19917;-76